CYAW/YAW METAR and TAF weather

Enter ICAO airport designator
Station Type Date Time Source
CYAW METAR 2018/01/19 19:15 UTC NOAA

CYAW 191915Z 30009KT 15SM FEW020 BKN090 BKN250 M06/M10 A2984 RMK SC1AS6CI1 DA-2296FT LAST OBS/NEXT 221100 UTC SLP108


Station Type Date Time Source
CYAW Decoded METAR 2018/01/19 19:15 UTC NOAA

Shearwater, N. S., Canada (CYAW) 44-38N 063-30W 51M
Jan 19, 2018 - 02:15 PM EST / 2018.01.19 1915 UTC
Wind: from the WNW (300 degrees) at 10 MPH (9 KT):0
Visibility: 15 mile(s):0
Sky conditions: mostly cloudy
Temperature: 21 F (-6 C)
Windchill: 10 F (-12 C):1
Dew Point: 14 F (-10 C)
Relative Humidity: 73%
Pressure (altimeter): 29.84 in. Hg (1010 hPa)
ob: CYAW 191915Z 30009KT 15SM FEW020 BKN090 BKN250 M06/M10 A2984 RMK SC1AS6CI1 DA-2296FT LAST OBS/NEXT 221100 UTC SLP108
cycle: 19

Station Type Date Time Source
CYAW TAF 2018/01/19 18:35 UTC NOAA

TAF CYAW 191730Z 1918/2006 33008KT P6SM FEW020 BKN130 BKN250
TEMPO 1919/1922 6SM -SHSN BKN030
FM200000 VRB03KT P6SM SCT030 SCT240
RMK NXT FCST BY 200000Z


Example: see airport list